Time;durP1;ratioP1;P1;durP2;ratioP2;P2;SDS_P1;SDS_P2;PMS_P1;PMS_P2;Temp;Humidity;BMP_temperature;BMP_pressure;BME280_temperature;BME280_humidity;BME280_pressure;Samples;Min_cycle;Max_cycle;Signal;HPM_P1;HPM_P2
2023/09/13 00:04:41;;;;;;;5.80;3.45;;;;;;;21.90;48.39;99550.91;10326176;28;20268;-73
2023/09/13 00:09:43;;;;;;;3.72;2.72;;;;;;;22.90;46.98;99549.78;10323290;28;20243;-72
2023/09/13 00:14:47;;;;;;;4.80;2.88;;;;;;;23.14;46.42;99573.81;10326335;28;20233;-72
2023/09/13 00:19:49;;;;;;;3.33;3.00;;;;;;;21.69;49.04;99609.06;10328841;28;20705;-72
2023/09/13 00:24:51;;;;;;;3.97;3.03;;;;;;;22.02;48.61;99571.69;10329231;28;20265;-72
2023/09/13 00:29:52;;;;;;;3.38;2.80;;;;;;;22.29;48.59;99539.63;10326436;28;20303;-72
2023/09/13 00:34:54;;;;;;;4.10;3.13;;;;;;;22.95;46.54;99564.53;10324675;28;20231;-74
2023/09/13 00:39:56;;;;;;;4.60;2.92;;;;;;;21.96;48.90;99589.91;10332399;28;20323;-73
2023/09/13 00:44:57;;;;;;;4.97;3.17;;;;;;;22.57;47.50;99594.78;10331863;28;20232;-74
2023/09/13 00:50:00;;;;;;;3.42;2.75;;;;;;;24.32;44.79;99537.16;10334192;28;20344;-72
2023/09/13 00:55:04;;;;;;;4.07;3.10;;;;;;;23.53;45.74;99573.22;10326167;28;20230;-72
2023/09/13 01:00:09;;;;;;;4.22;2.80;;;;;;;22.97;46.53;99578.72;10324070;28;20233;-72
2023/09/13 01:05:14;;;;;;;3.08;2.80;;;;;;;22.01;48.19;99624.53;10319100;28;20257;-72
2023/09/13 01:10:15;;;;;;;3.88;2.80;;;;;;;21.80;49.05;99629.84;10326202;28;20725;-72
2023/09/13 01:15:17;;;;;;;3.20;2.90;;;;;;;22.70;47.36;99583.31;10324629;28;20226;-72
2023/09/13 01:20:44;;;;;;;4.32;3.25;;;;;;;22.53;47.08;99638.09;10323167;28;20234;-71
2023/09/13 01:26:07;;;;;;;3.67;2.70;;;;;;;21.95;48.43;99637.31;10322589;28;20237;-72
2023/09/13 01:31:10;;;;;;;3.58;3.13;;;;;;;21.50;49.18;99649.50;10322531;28;20618;-72
2023/09/13 01:36:12;;;;;;;4.15;2.90;;;;;;;22.14;48.40;99589.44;10324503;28;20784;-70
2023/09/13 01:41:25;;;;;;;3.72;3.08;;;;;;;21.73;49.07;99589.22;10323166;28;20240;-71
2023/09/13 01:46:35;;;;;;;3.08;2.72;;;;;;;21.05;49.87;99633.34;10318245;28;20819;-71
2023/09/13 01:51:37;;;;;;;3.42;2.80;;;;;;;21.52;49.04;99606.50;10321761;28;20364;-72
2023/09/13 01:56:38;;;;;;;4.57;2.95;;;;;;;19.47;53.58;99600.38;10326807;28;20312;-72
2023/09/13 02:01:40;;;;;;;4.78;3.20;;;;;;;20.73;51.63;99534.56;10321476;28;20392;-72
2023/09/13 02:06:42;;;;;;;3.60;2.97;;;;;;;20.42;51.51;99572.34;10321804;28;20241;-71
2023/09/13 02:11:44;;;;;;;3.80;3.08;;;;;;;19.93;53.06;99571.19;10318526;28;20242;-72
2023/09/13 02:16:45;;;;;;;4.63;3.15;;;;;;;20.28;52.38;99561.84;10320076;28;20240;-72
2023/09/13 02:21:47;;;;;;;4.00;2.70;;;;;;;20.38;51.43;99607.34;10322480;28;20816;-71
2023/09/13 02:26:54;;;;;;;5.47;2.60;;;;;;;20.46;51.24;99630.50;10317939;28;20630;-71
2023/09/13 02:31:56;;;;;;;3.38;2.63;;;;;;;19.95;52.64;99622.53;10320721;28;20299;-72
2023/09/13 02:36:58;;;;;;;3.67;2.70;;;;;;;19.79;52.87;99621.50;10320492;28;20798;-71
2023/09/13 02:42:02;;;;;;;3.63;2.90;;;;;;;20.32;51.96;99602.91;10320334;28;20818;-71
2023/09/13 02:47:04;;;;;;;3.33;2.80;;;;;;;20.19;53.02;99620.41;10312662;28;20233;-71
2023/09/13 02:52:05;;;;;;;4.00;3.10;;;;;;;21.19;50.67;99594.84;10325206;28;20229;-71
2023/09/13 02:57:07;;;;;;;4.10;3.15;;;;;;;21.90;49.62;99593.66;10317202;28;20241;-72
2023/09/13 03:02:09;;;;;;;5.43;2.97;;;;;;;21.07;50.37;99651.28;10322703;28;20237;-72
2023/09/13 03:07:11;;;;;;;3.22;2.92;;;;;;;20.78;50.78;99686.91;10321786;28;20381;-72
2023/09/13 03:12:13;;;;;;;3.22;2.90;;;;;;;20.17;52.33;99676.91;10323262;28;20240;-71
2023/09/13 03:17:14;;;;;;;3.88;3.05;;;;;;;20.16;51.90;99675.25;10322258;28;20231;-71
2023/09/13 03:22:18;;;;;;;4.15;3.20;;;;;;;20.96;51.45;99599.53;10321496;28;20234;-71
2023/09/13 03:27:20;;;;;;;4.43;3.25;;;;;;;20.63;51.71;99623.13;10320802;28;20231;-72
2023/09/13 03:32:21;;;;;;;3.30;3.00;;;;;;;20.23;51.95;99639.78;10317525;28;20315;-70
2023/09/13 03:37:23;;;;;;;6.20;3.72;;;;;;;20.30;51.44;99662.13;10319078;28;20233;-73
2023/09/13 03:42:25;;;;;;;3.85;2.75;;;;;;;20.22;51.93;99662.56;10319438;28;20246;-72
2023/09/13 03:47:27;;;;;;;3.20;2.90;;;;;;;21.44;49.42;99637.75;10324662;28;20846;-72
2023/09/13 03:52:28;;;;;;;3.30;2.78;;;;;;;21.19;50.22;99660.13;10331355;28;20233;-73
2023/09/13 03:57:30;;;;;;;3.58;2.90;;;;;;;20.73;51.94;99646.84;10334791;28;20280;-72
2023/09/13 04:02:32;;;;;;;3.08;2.70;;;;;;;20.73;50.61;99698.50;10325373;28;20328;-72
2023/09/13 04:07:34;;;;;;;3.72;3.15;;;;;;;20.74;51.91;99636.81;10330750;28;20244;-72
2023/09/13 04:12:36;;;;;;;4.38;3.70;;;;;;;20.58;51.49;99682.84;10329564;28;20237;-72
2023/09/13 04:17:38;;;;;;;3.72;3.20;;;;;;;21.91;49.53;99606.19;10333295;28;20260;-72
2023/09/13 04:22:39;;;;;;;4.05;3.20;;;;;;;21.33;50.12;99650.44;10326084;28;20758;-73
2023/09/13 04:27:45;;;;;;;3.30;3.00;;;;;;;22.41;48.33;99620.34;10335218;28;20244;-73
2023/09/13 04:32:47;;;;;;;3.33;3.03;;;;;;;22.57;47.98;99638.41;10319417;28;20264;-72
2023/09/13 04:37:49;;;;;;;3.60;3.13;;;;;;;23.89;45.81;99625.06;10328413;28;20226;-73
2023/09/13 04:43:06;;;;;;;3.67;3.03;;;;;;;22.79;47.37;99706.38;10327695;28;20393;-73
2023/09/13 04:48:07;;;;;;;3.25;2.95;;;;;;;22.88;46.99;99687.56;10326874;28;20712;-72
2023/09/13 04:53:09;;;;;;;4.65;3.63;;;;;;;22.96;47.56;99678.00;10330254;28;20232;-72
2023/09/13 04:58:11;;;;;;;3.67;3.08;;;;;;;22.41;48.12;99711.09;10332256;28;20233;-74
2023/09/13 05:03:13;;;;;;;4.03;3.15;;;;;;;23.85;45.64;99669.59;10325191;28;20261;-73
2023/09/13 05:08:15;;;;;;;3.75;3.33;;;;;;;23.59;45.63;99684.09;10325818;28;20271;-74
2023/09/13 05:13:17;;;;;;;3.60;3.30;;;;;;;23.52;45.66;99701.84;10326935;28;20229;-72
2023/09/13 05:18:18;;;;;;;4.20;3.08;;;;;;;22.95;47.02;99722.78;10328563;28;20744;-73
2023/09/13 05:23:20;;;;;;;3.90;3.22;;;;;;;22.58;47.77;99729.19;10330521;28;20265;-75
2023/09/13 05:28:22;;;;;;;4.20;3.45;;;;;;;22.10;48.53;99740.06;10327887;28;22337;-75
2023/09/13 05:33:25;;;;;;;3.72;3.20;;;;;;;22.21;48.87;99672.84;10323792;28;20324;-74
2023/09/13 05:38:26;;;;;;;5.38;3.75;;;;;;;22.19;49.25;99699.56;10323324;28;20738;-75
2023/09/13 05:43:29;;;;;;;4.22;3.70;;;;;;;21.22;50.60;99741.22;10323635;28;20243;-75
2023/09/13 05:48:31;;;;;;;3.65;3.22;;;;;;;22.52;48.54;99687.44;10324854;28;20729;-72
2023/09/13 05:53:33;;;;;;;4.35;3.60;;;;;;;22.56;48.39;99693.22;10320992;28;20802;-72
2023/09/13 05:58:34;;;;;;;4.20;3.40;;;;;;;21.62;50.92;99701.06;10323887;28;20237;-74
2023/09/13 06:03:36;;;;;;;4.18;3.28;;;;;;;20.98;51.19;99754.28;10319147;28;20290;-74
2023/09/13 06:08:37;;;;;;;4.90;3.42;;;;;;;21.28;50.75;99723.88;10319256;28;20245;-74
2023/09/13 06:13:39;;;;;;;5.10;3.45;;;;;;;21.47;50.56;99720.78;10326328;28;20583;-75
2023/09/13 06:18:41;;;;;;;4.78;3.78;;;;;;;21.11;51.57;99745.75;10329856;28;20233;-74
2023/09/13 06:23:43;;;;;;;5.22;3.85;;;;;;;21.44;50.91;99743.09;10323364;28;20587;-74
2023/09/13 06:28:45;;;;;;;5.35;4.13;;;;;;;21.80;49.63;99763.28;10318566;28;20249;-74
2023/09/13 06:33:47;;;;;;;5.38;4.00;;;;;;;22.43;48.81;99727.19;10317631;28;20244;-74
2023/09/13 06:38:49;;;;;;;5.18;4.03;;;;;;;22.84;48.36;99728.22;10319494;28;20604;-74
2023/09/13 06:43:52;;;;;;;5.13;4.03;;;;;;;22.11;49.75;99768.97;10324829;28;20237;-74
2023/09/13 06:48:59;;;;;;;6.32;4.15;;;;;;;21.87;50.12;99777.50;10323119;23;20237;-35
2023/09/13 06:54:03;;;;;;;4.93;3.70;;;;;;;22.41;49.08;99753.91;10323630;28;20233;-37
2023/09/13 06:59:06;;;;;;;5.57;3.90;;;;;;;22.40;49.06;99761.22;10336721;28;21069;-36
2023/09/13 07:04:13;;;;;;;4.90;3.97;;;;;;;23.57;47.29;99749.09;10300301;28;20239;-36
2023/09/13 07:09:23;;;;;;;5.07;3.95;;;;;;;23.05;47.64;99793.75;10291866;28;20228;-36
2023/09/13 07:14:24;;;;;;;4.45;3.72;;;;;;;21.23;51.15;99792.66;10294743;28;21351;-36
2023/09/13 07:19:26;;;;;;;4.72;3.50;;;;;;;22.82;48.08;99760.38;10297656;28;20743;-36
2023/09/13 07:24:29;;;;;;;4.70;4.13;;;;;;;22.08;49.36;99794.84;10297129;28;20234;-35
2023/09/13 07:29:30;;;;;;;5.55;4.00;;;;;;;20.29;53.11;99812.63;10298890;28;20826;-36
2023/09/13 07:34:32;;;;;;;7.55;3.75;;;;;;;23.14;47.95;99745.75;10299682;28;20234;-36
2023/09/13 07:39:34;;;;;;;4.80;4.13;;;;;;;20.62;52.64;99814.47;10299865;28;20328;-37
2023/09/13 07:44:36;;;;;;;3.40;3.08;;;;;;;20.82;52.42;99784.03;10298690;28;20276;-36
2023/09/13 07:49:37;;;;;;;4.18;3.72;;;;;;;22.92;48.47;99781.41;10297924;28;20406;-36
2023/09/13 07:54:39;;;;;;;5.03;3.88;;;;;;;23.24;47.57;99794.09;10298252;28;20230;-35
2023/09/13 07:59:41;;;;;;;5.18;3.47;;;;;;;23.95;46.43;99789.81;10300488;28;20236;-36
2023/09/13 08:04:42;;;;;;;5.72;3.80;;;;;;;23.44;47.79;99805.03;10298065;28;20244;-36
2023/09/13 08:09:44;;;;;;;4.95;3.58;;;;;;;21.32;50.07;99873.84;10298102;28;22661;-36
2023/09/13 08:14:46;;;;;;;4.10;3.70;;;;;;;23.48;47.43;99816.25;10300663;28;20329;-36
2023/09/13 08:19:49;;;;;;;6.55;3.90;;;;;;;23.55;47.00;99807.78;10298679;28;20814;-35
2023/09/13 08:24:52;;;;;;;4.53;4.05;;;;;;;22.70;48.52;99836.97;10293551;28;20245;-36
2023/09/13 08:29:54;;;;;;;5.32;3.80;;;;;;;23.06;47.91;99800.84;10297311;28;20241;-37
2023/09/13 08:34:55;;;;;;;7.15;4.15;;;;;;;22.99;47.55;99839.28;10294163;28;20227;-36
2023/09/13 08:39:57;;;;;;;5.07;4.45;;;;;;;23.67;46.87;99794.75;10293720;28;20322;-36
2023/09/13 08:44:59;;;;;;;6.57;5.07;;;;;;;23.52;47.30;99790.06;10297087;28;20238;-37
2023/09/13 08:50:03;;;;;;;4.45;3.80;;;;;;;22.90;48.58;99838.16;10293900;28;20258;-35
2023/09/13 08:55:07;;;;;;;7.13;3.97;;;;;;;22.97;47.85;99822.34;10295130;28;20230;-37
2023/09/13 09:00:09;;;;;;;5.30;4.32;;;;;;;23.53;47.36;99788.13;10291175;28;20261;-37
2023/09/13 09:05:12;;;;;;;5.05;4.40;;;;;;;23.44;47.73;99817.88;10293455;28;20312;-36
2023/09/13 09:10:15;;;;;;;6.15;4.00;;;;;;;23.49;47.54;99830.75;10292832;28;20618;-36
2023/09/13 09:15:18;;;;;;;4.75;3.85;;;;;;;23.79;47.15;99822.59;10293081;28;20628;-35
2023/09/13 09:20:20;;;;;;;6.90;4.65;;;;;;;24.00;46.47;99823.44;10295009;28;20238;-36
2023/09/13 09:25:24;;;;;;;5.22;3.83;;;;;;;24.36;45.78;99828.88;10291802;28;20239;-36
2023/09/13 09:30:33;;;;;;;5.20;4.30;;;;;;;23.28;47.49;99876.25;10294624;28;20765;-37
2023/09/13 09:35:36;;;;;;;5.72;4.53;;;;;;;23.45;47.29;99879.59;10328786;28;20661;-36
2023/09/13 09:40:38;;;;;;;5.20;4.38;;;;;;;23.53;47.24;99870.06;10328061;28;20313;-36
2023/09/13 09:45:40;;;;;;;4.22;3.78;;;;;;;23.20;48.11;99872.16;10328614;28;20229;-35
2023/09/13 09:50:46;;;;;;;4.65;4.20;;;;;;;23.80;46.56;99862.50;10331360;28;20241;-36
2023/09/13 09:55:50;;;;;;;5.35;4.10;;;;;;;23.26;48.77;99890.16;10334740;28;20291;-36
2023/09/13 10:00:53;;;;;;;4.68;3.90;;;;;;;23.72;48.39;99862.19;10327804;28;20241;-36
2023/09/13 10:06:13;;;;;;;4.95;4.03;;;;;;;23.69;47.07;99855.38;10328110;28;20310;-37
2023/09/13 10:11:22;;;;;;;5.00;4.15;;;;;;;24.19;47.05;99809.22;10330163;28;20222;-36
2023/09/13 10:16:29;;;;;;;5.30;4.05;;;;;;;24.04;46.83;99839.25;10330482;28;20236;-36
2023/09/13 10:21:32;;;;;;;5.78;3.58;;;;;;;24.81;45.09;99809.09;10332268;28;20703;-37
2023/09/13 10:26:35;;;;;;;4.13;3.72;;;;;;;24.36;45.76;99831.63;10331014;28;20734;-37
2023/09/13 10:31:43;;;;;;;5.85;4.15;;;;;;;23.74;47.07;99870.97;10336089;28;20244;-36
2023/09/13 10:36:51;;;;;;;4.13;3.63;;;;;;;23.53;46.17;99876.31;10331184;28;20515;-36
2023/09/13 10:42:04;;;;;;;4.25;3.33;;;;;;;24.63;44.58;99835.09;10331298;28;20263;-36
2023/09/13 10:47:07;;;;;;;4.38;2.80;;;;;;;24.54;44.56;99838.44;10331119;28;20244;-36
2023/09/13 10:52:09;;;;;;;3.65;3.35;;;;;;;24.27;44.94;99846.94;10317208;28;20379;-36
2023/09/13 10:57:14;;;;;;;2.63;2.42;;;;;;;24.99;42.93;99824.88;10296981;28;20239;-36
2023/09/13 11:06:20;;;;;;;4.35;2.42;;;;;;;21.81;48.41;99811.19;10348246;28;21197;-75
2023/09/13 11:11:22;;;;;;;4.18;2.60;;;;;;;21.75;48.73;99806.81;10257559;28;20702;-77
2023/09/13 11:16:28;;;;;;;4.28;2.80;;;;;;;22.29;47.33;99782.19;10301319;28;20734;-78
2023/09/13 11:21:46;;;;;;;2.92;2.55;;;;;;;22.14;47.35;99831.13;10430204;28;20239;-75
2023/09/13 11:26:48;;;;;;;2.60;2.40;;;;;;;22.23;47.14;99809.66;10431706;28;20269;-75
2023/09/13 11:31:59;;;;;;;3.55;2.28;;;;;;;21.99;47.84;99847.34;10430145;28;20239;-75
2023/09/13 11:37:07;;;;;;;2.40;2.20;;;;;;;23.05;45.96;99801.94;10430589;28;20610;-75
2023/09/13 11:42:10;;;;;;;2.22;2.03;;;;;;;22.60;46.68;99836.09;10441869;28;20235;-76
2023/09/13 11:47:26;;;;;;;5.43;2.50;;;;;;;22.75;46.97;99814.34;10348579;28;20329;-76
2023/09/13 11:52:58;;;;;;;4.05;2.28;;;;;;;22.14;47.37;99861.91;10307049;28;20232;-76
2023/09/13 11:58:02;;;;;;;4.10;2.20;;;;;;;22.19;47.33;99857.59;10428962;28;20255;-76
2023/09/13 12:03:21;;;;;;;3.42;3.13;;;;;;;21.10;48.58;99892.91;10329943;28;20733;-78
2023/09/13 12:08:43;;;;;;;5.28;3.00;;;;;;;22.84;46.77;99799.13;10261576;28;20235;-75
2023/09/13 12:13:48;;;;;;;3.10;2.80;;;;;;;21.50;47.23;99878.97;10262196;28;22288;-77
2023/09/13 12:19:12;;;;;;;3.47;3.13;;;;;;;22.89;45.21;99856.44;10236285;28;20239;-76
2023/09/13 12:24:23;;;;;;;3.05;2.70;;;;;;;21.87;46.95;99891.06;10234874;28;20232;-77
2023/09/13 12:29:25;;;;;;;3.60;3.30;;;;;;;22.57;46.86;99820.25;10374295;28;20657;-75
2023/09/13 12:34:27;;;;;;;4.22;3.30;;;;;;;20.84;48.55;99881.69;10233739;28;20730;-74
2023/09/13 12:39:29;;;;;;;3.60;3.00;;;;;;;23.19;43.67;99808.53;10197726;28;20733;-75
2023/09/13 12:44:32;;;;;;;4.22;3.30;;;;;;;23.11;43.93;99825.44;10206091;28;20302;-75
2023/09/13 12:49:38;;;;;;;3.53;3.00;;;;;;;22.88;44.08;99873.88;10372093;28;20236;-75
2023/09/13 12:54:42;;;;;;;3.50;3.20;;;;;;;22.65;44.54;99866.13;10224114;28;20618;-73
2023/09/13 12:59:45;;;;;;;5.90;3.20;;;;;;;24.26;42.83;99812.50;10370524;28;20235;-72
2023/09/13 13:04:47;;;;;;;3.90;3.33;;;;;;;23.25;44.17;99851.16;10402542;28;20719;-73
2023/09/13 13:09:52;;;;;;;3.78;3.38;;;;;;;21.74;45.46;99906.72;10226339;28;20251;-72
2023/09/13 13:14:54;;;;;;;4.60;3.20;;;;;;;22.68;43.88;99898.31;10220678;28;20228;-73
2023/09/13 13:19:56;;;;;;;4.07;3.38;;;;;;;23.31;43.16;99851.16;10381117;28;20236;-73
2023/09/13 13:24:58;;;;;;;3.50;3.13;;;;;;;22.99;43.82;99843.91;10397327;28;20236;-73
2023/09/13 13:30:00;;;;;;;3.47;2.78;;;;;;;22.73;44.38;99859.34;10399560;28;20228;-73
2023/09/13 13:35:03;;;;;;;4.47;3.35;;;;;;;23.15;42.47;99858.50;10205873;28;20259;-73
2023/09/13 16:53:45;;;;;;;3.30;2.10;;;;;;;22.28;44.00;99823.31;10169314;28;20315;-68
2023/09/13 16:58:46;;;;;;;2.60;2.40;;;;;;;21.77;44.51;99851.75;10187268;28;20247;-72
2023/09/13 17:03:48;;;;;;;2.70;2.22;;;;;;;22.82;42.77;99839.47;10190500;28;20334;-71
2023/09/13 17:08:51;;;;;;;5.32;2.50;;;;;;;23.63;41.20;99868.22;10205852;28;20327;-75
2023/09/13 17:13:53;;;;;;;2.72;2.13;;;;;;;25.19;39.52;99813.00;10195412;28;20235;-71
2023/09/13 17:18:55;;;;;;;3.38;1.95;;;;;;;23.08;42.40;99883.28;10193028;28;20243;-70
2023/09/13 17:23:58;;;;;;;3.40;2.10;;;;;;;24.06;40.56;99878.91;10192043;28;20752;-72
2023/09/13 17:28:59;;;;;;;2.60;1.90;;;;;;;23.11;42.22;99899.09;10203687;28;20343;-73
2023/09/13 17:34:01;;;;;;;4.80;2.10;;;;;;;24.55;40.10;99848.25;10209624;28;20239;-72
2023/09/13 17:39:08;;;;;;;3.42;1.73;;;;;;;24.86;40.16;99834.50;10205729;28;20240;-72
2023/09/13 17:44:09;;;;;;;4.63;2.13;;;;;;;22.92;42.41;99917.81;10205097;28;20752;-70
2023/09/13 17:49:13;;;;;;;4.90;2.03;;;;;;;23.42;41.75;99905.53;10209305;28;20263;-72
2023/09/13 17:54:14;;;;;;;3.33;1.90;;;;;;;23.82;41.64;99873.16;10204161;28;20255;-73
2023/09/13 17:59:16;;;;;;;2.38;1.80;;;;;;;23.18;42.23;99923.44;10199836;28;20243;-73
2023/09/13 18:04:18;;;;;;;2.83;2.10;;;;;;;23.28;41.81;99901.66;10206579;28;20297;-76
2023/09/13 18:09:20;;;;;;;2.35;2.00;;;;;;;24.16;40.41;99880.84;10222340;28;20693;-72
2023/09/13 18:14:21;;;;;;;2.17;1.98;;;;;;;23.67;40.77;99946.84;10204610;28;20750;-74
2023/09/13 18:19:24;;;;;;;2.40;2.10;;;;;;;24.55;40.31;99869.31;10188500;28;20246;-73
2023/09/13 18:24:25;;;;;;;2.25;2.05;;;;;;;23.65;41.32;99959.97;10199113;28;20526;-73
2023/09/13 18:29:43;;;;;;;2.83;2.13;;;;;;;23.13;41.96;99932.44;10202509;28;20235;-73
2023/09/13 18:34:45;;;;;;;2.03;1.83;;;;;;;24.54;40.11;99925.13;10206001;28;20240;-78
2023/09/13 18:39:47;;;;;;;3.95;1.80;;;;;;;23.70;41.40;99957.25;10199751;28;20323;-78
2023/09/13 18:44:49;;;;;;;3.15;2.13;;;;;;;24.62;40.87;99896.41;10199391;28;20748;-76
2023/09/13 18:49:51;;;;;;;2.33;2.13;;;;;;;22.06;43.68;99978.72;10197361;28;20321;-77
2023/09/13 18:54:53;;;;;;;3.90;2.10;;;;;;;23.05;42.15;99936.44;10199424;28;20677;-78
2023/09/13 18:59:56;;;;;;;3.30;2.20;;;;;;;22.98;42.33;99948.69;10216976;28;20240;-77
2023/09/13 19:04:57;;;;;;;2.35;1.77;;;;;;;22.44;43.29;99988.63;10211494;28;20321;-73
2023/09/13 19:10:00;;;;;;;4.00;2.28;;;;;;;22.24;43.55;99947.56;10184582;28;20240;-76
2023/09/13 19:15:02;;;;;;;2.88;2.17;;;;;;;22.29;43.25;99966.69;10198364;28;20793;-76
2023/09/13 19:20:08;;;;;;;2.53;2.13;;;;;;;22.58;42.49;99971.88;10199913;28;20965;-75
2023/09/13 19:25:10;;;;;;;3.30;2.50;;;;;;;21.95;44.13;99975.09;10207997;28;20777;-76
2023/09/13 19:30:12;;;;;;;2.70;1.92;;;;;;;21.81;43.61;100001.03;10211695;28;20238;-76
2023/09/13 19:35:14;;;;;;;2.97;2.13;;;;;;;21.24;44.73;100019.34;10206723;28;21688;-77
2023/09/13 19:40:16;;;;;;;3.05;2.10;;;;;;;21.78;43.89;100003.19;10201124;28;20546;-76
2023/09/13 19:45:21;;;;;;;2.50;2.30;;;;;;;21.53;44.40;100027.41;10201761;28;20239;-78
2023/09/13 19:50:23;;;;;;;2.65;2.28;;;;;;;21.37;44.14;100035.34;10185756;28;20255;-75
2023/09/13 19:55:26;;;;;;;2.53;1.83;;;;;;;20.88;45.16;100066.94;10210447;28;20722;-74
2023/09/13 20:00:29;;;;;;;3.22;2.38;;;;;;;20.29;46.54;100016.41;10192371;28;20327;-78
2023/09/13 20:05:34;;;;;;;3.70;1.95;;;;;;;19.57;47.92;100032.09;10193963;28;20232;-78
2023/09/13 20:10:36;;;;;;;5.15;2.25;;;;;;;19.29;48.33;100023.84;10196441;28;20259;-75
2023/09/13 20:15:38;;;;;;;3.28;2.20;;;;;;;19.47;48.33;100006.56;10199211;28;20331;-76
2023/09/13 20:20:40;;;;;;;2.92;2.42;;;;;;;20.19;46.77;99980.91;10200080;28;20235;-79
2023/09/13 20:25:41;;;;;;;3.88;2.38;;;;;;;22.04;44.10;99973.53;10202326;28;20347;-76
2023/09/13 20:30:43;;;;;;;4.55;2.45;;;;;;;22.37;43.23;100018.03;10206711;28;20240;-75
2023/09/13 20:35:45;;;;;;;3.55;2.20;;;;;;;21.02;44.98;100111.75;10194685;28;20235;-75
2023/09/13 20:40:47;;;;;;;2.83;2.10;;;;;;;20.89;45.33;100071.31;10207285;28;20259;-75
2023/09/13 20:45:49;;;;;;;2.58;2.15;;;;;;;21.45;44.76;100042.25;10210201;28;20362;-73
2023/09/13 20:50:54;;;;;;;3.25;2.30;;;;;;;20.76;45.75;100092.25;10200852;28;20270;-74
2023/09/13 20:55:55;;;;;;;2.97;2.10;;;;;;;19.92;46.84;100126.22;10199824;28;20330;-74
2023/09/13 21:00:58;;;;;;;2.95;2.10;;;;;;;20.71;45.89;100077.75;10198385;28;20240;-73
2023/09/13 21:06:00;;;;;;;2.45;2.03;;;;;;;19.81;47.42;100102.63;10205440;28;20235;-75
2023/09/13 21:11:05;;;;;;;3.47;2.60;;;;;;;18.95;49.07;100132.06;10193559;28;20235;-74
2023/09/13 21:16:08;;;;;;;4.00;2.30;;;;;;;19.25;48.85;100132.00;10203348;28;20235;-74
2023/09/13 21:21:10;;;;;;;3.20;2.30;;;;;;;21.45;45.49;100099.41;10202116;28;20258;-75
2023/09/13 21:26:13;;;;;;;2.25;2.00;;;;;;;20.37;46.35;100194.56;10199523;28;20232;-74
2023/09/13 21:31:18;;;;;;;2.67;2.47;;;;;;;19.86;48.15;100151.63;10200617;28;20256;-74
2023/09/13 21:36:20;;;;;;;2.70;2.50;;;;;;;21.05;46.08;100073.19;10200120;28;20235;-74
2023/09/13 21:41:21;;;;;;;3.60;2.97;;;;;;;21.87;44.71;100111.72;10196775;28;20919;-74
2023/09/13 21:46:23;;;;;;;4.57;2.78;;;;;;;22.28;43.51;100142.22;10192082;28;20897;-74
2023/09/13 21:51:25;;;;;;;3.63;2.53;;;;;;;22.20;43.57;100175.34;10203737;28;20665;-75
2023/09/13 21:56:27;;;;;;;2.78;2.47;;;;;;;21.78;44.40;100191.13;10194161;28;20262;-73
2023/09/13 22:01:29;;;;;;;3.17;2.88;;;;;;;21.49;45.20;100148.72;10213163;28;20326;-75
2023/09/13 22:06:31;;;;;;;3.35;2.53;;;;;;;21.53;44.78;100171.69;10196161;28;20917;-74
2023/09/13 22:11:34;;;;;;;4.20;2.78;;;;;;;21.61;45.21;100122.25;10207120;28;20540;-75
2023/09/13 22:16:35;;;;;;;3.20;2.80;;;;;;;21.61;45.69;100105.91;10199474;28;20243;-75
2023/09/13 22:21:37;;;;;;;3.53;3.10;;;;;;;22.39;44.28;100126.81;10199901;28;20239;-74
2023/09/13 22:26:39;;;;;;;3.83;3.40;;;;;;;21.40;45.49;100189.16;10205367;28;20778;-75
2023/09/13 22:31:41;;;;;;;5.05;3.63;;;;;;;21.41;45.23;100199.00;10192657;28;20243;-76
2023/09/13 22:36:43;;;;;;;4.43;3.35;;;;;;;21.31;45.70;100158.78;10200862;28;20255;-75
2023/09/13 22:41:45;;;;;;;3.65;3.25;;;;;;;21.62;44.67;100193.88;10205543;28;20227;-76
2023/09/13 22:46:46;;;;;;;6.32;3.45;;;;;;;21.90;44.39;100169.22;10200681;28;20240;-75
2023/09/13 22:51:49;;;;;;;3.90;3.50;;;;;;;21.23;45.36;100219.06;10212111;28;20240;-74
2023/09/13 22:56:51;;;;;;;4.10;3.30;;;;;;;21.26;45.34;100218.56;10222485;28;20243;-75
2023/09/13 23:01:53;;;;;;;2.97;2.75;;;;;;;21.73;45.02;100150.19;10195239;28;20288;-75
2023/09/13 23:06:54;;;;;;;4.43;3.95;;;;;;;21.25;45.80;100214.19;10199641;28;20232;-75
2023/09/13 23:11:56;;;;;;;3.92;3.53;;;;;;;21.21;45.85;100197.53;10207245;28;20250;-74
2023/09/13 23:16:58;;;;;;;3.42;3.05;;;;;;;20.43;47.17;100228.91;10203832;28;20239;-74
2023/09/13 23:21:59;;;;;;;6.75;3.15;;;;;;;21.27;45.47;100173.13;10205400;28;20651;-76
2023/09/13 23:27:02;;;;;;;5.32;3.30;;;;;;;20.37;47.08;100219.81;10201198;28;20903;-75
2023/09/13 23:32:04;;;;;;;5.05;4.43;;;;;;;21.10;46.01;100160.31;10215657;28;20274;-75
2023/09/13 23:37:06;;;;;;;5.43;4.70;;;;;;;20.53;46.62;100185.66;10200450;28;20262;-77
2023/09/13 23:42:08;;;;;;;5.25;4.65;;;;;;;19.61;48.03;100210.75;10205633;28;20618;-75
2023/09/13 23:47:10;;;;;;;6.65;4.85;;;;;;;21.06;45.54;100148.31;10191565;28;20236;-74
2023/09/13 23:52:12;;;;;;;5.25;4.65;;;;;;;20.43;46.97;100171.81;10199844;28;20298;-75
2023/09/13 23:57:14;;;;;;;5.68;4.50;;;;;;;19.25;48.09;100248.66;10203454;28;20231;-76
